createdAt,value
2022-09-15T00:03:41.370Z,12.87
2022-09-15T00:08:44.886Z,12.85
2022-09-15T00:13:48.297Z,12.83
2022-09-15T00:18:51.930Z,12.83
2022-09-15T00:23:55.531Z,12.82
2022-09-15T00:29:00.344Z,12.80
2022-09-15T00:34:04.222Z,12.76
2022-09-15T00:39:07.408Z,12.73
2022-09-15T00:44:16.655Z,12.69
2022-09-15T00:49:28.261Z,12.67
2022-09-15T00:54:43.557Z,12.64
2022-09-15T00:59:48.715Z,12.62
2022-09-15T01:04:58.020Z,12.59
2022-09-15T01:10:08.126Z,12.58
2022-09-15T01:15:11.888Z,12.57
2022-09-15T01:20:30.522Z,12.55
2022-09-15T01:26:02.136Z,12.54
2022-09-15T01:31:13.967Z,12.52
2022-09-15T01:36:37.187Z,12.51
2022-09-15T01:41:45.815Z,12.51
2022-09-15T01:46:57.299Z,12.52
2022-09-15T01:52:01.242Z,12.51
2022-09-15T01:57:04.551Z,12.52
2022-09-15T02:02:15.074Z,12.52
2022-09-15T02:07:45.586Z,12.52
2022-09-15T02:12:52.677Z,12.52
2022-09-15T02:17:58.242Z,12.50
2022-09-15T02:23:08.721Z,12.50
2022-09-15T02:28:15.392Z,12.50
2022-09-15T02:33:24.343Z,12.50
2022-09-15T02:38:33.807Z,12.50
2022-09-15T02:43:45.552Z,12.49
2022-09-15T02:48:49.338Z,12.49
2022-09-15T02:53:53.568Z,12.48
2022-09-15T02:58:56.675Z,12.49
2022-09-15T03:03:59.779Z,12.50
2022-09-15T03:09:07.805Z,12.50
2022-09-15T03:14:10.906Z,12.49
2022-09-15T03:19:14.215Z,12.49
2022-09-15T03:24:19.063Z,12.50
2022-09-15T03:29:22.170Z,12.50
2022-09-15T03:34:25.375Z,12.51
2022-09-15T03:39:28.482Z,12.51
2022-09-15T03:44:31.590Z,12.51
2022-09-15T03:49:35.105Z,12.51
2022-09-15T03:54:38.324Z,12.50
2022-09-15T03:59:41.622Z,12.50
2022-09-15T04:04:44.599Z,12.48
2022-09-15T04:09:48.045Z,12.42
2022-09-15T04:14:51.424Z,12.32
2022-09-15T04:19:54.786Z,12.17
2022-09-15T04:24:58.091Z,12.00
2022-09-15T04:30:01.498Z,11.86
2022-09-15T04:35:06.273Z,11.73
2022-09-15T04:40:10.577Z,11.64
2022-09-15T04:45:14.078Z,11.58
2022-09-15T04:50:17.591Z,11.57
2022-09-15T04:55:20.908Z,11.59
2022-09-15T05:00:25.238Z,11.65
2022-09-15T05:05:28.645Z,11.76
2022-09-15T05:10:32.118Z,11.91
2022-09-15T05:15:35.476Z,12.07
2022-09-15T05:20:38.478Z,12.22
2022-09-15T05:25:41.775Z,12.39
2022-09-15T05:30:45.254Z,12.56
2022-09-15T05:35:53.583Z,12.74
2022-09-15T05:41:11.681Z,12.96
2022-09-15T05:46:16.302Z,13.27
2022-09-15T05:51:21.277Z,13.66
2022-09-15T05:56:24.491Z,15.67
2022-09-15T06:01:31.358Z,19.31
2022-09-15T06:06:34.692Z,22.63
2022-09-15T06:11:38.104Z,25.36
2022-09-15T06:16:41.193Z,27.39
2022-09-15T06:21:44.724Z,29.31
2022-09-15T06:26:48.241Z,31.17
2022-09-15T06:31:52.257Z,32.24
2022-09-15T06:36:56.784Z,32.42
2022-09-15T06:42:02.614Z,33.26
2022-09-15T06:47:07.639Z,33.87
2022-09-15T06:52:10.837Z,32.26
2022-09-15T06:57:13.951Z,31.75
2022-09-15T07:02:17.657Z,31.24
2022-09-15T07:07:20.971Z,30.93
2022-09-15T07:12:24.078Z,30.56
2022-09-15T07:17:27.483Z,30.76
2022-09-15T07:22:30.677Z,32.68
2022-09-15T07:27:33.962Z,34.46
2022-09-15T07:32:37.829Z,35.78
2022-09-15T07:37:40.935Z,36.58
2022-09-15T07:42:45.685Z,37.24
2022-09-15T07:47:50.021Z,37.88
2022-09-15T07:52:57.421Z,38.28
2022-09-15T07:58:01.655Z,38.79
2022-09-15T08:03:05.475Z,38.67
2022-09-15T08:08:10.076Z,38.62
2022-09-15T08:13:13.338Z,38.49
2022-09-15T08:18:17.557Z,38.76
2022-09-15T08:23:20.663Z,38.50
2022-09-15T08:28:24.038Z,36.73
2022-09-15T08:33:28.551Z,33.30
2022-09-15T08:38:32.394Z,30.32
2022-09-15T08:43:59.814Z,28.21
2022-09-15T08:49:30.618Z,26.68
2022-09-15T08:54:39.918Z,25.45
2022-09-15T08:59:43.943Z,25.24
2022-09-15T09:05:09.067Z,27.96
2022-09-15T09:10:37.055Z,28.66
2022-09-15T09:15:58.574Z,28.00
2022-09-15T09:21:10.812Z,26.89
2022-09-15T09:26:15.627Z,25.91
2022-09-15T09:31:23.142Z,25.96
2022-09-15T09:36:27.397Z,25.87
2022-09-15T09:41:39.211Z,25.38
2022-09-15T09:46:43.023Z,24.26
2022-09-15T09:51:52.592Z,22.89
2022-09-15T09:57:17.506Z,22.02
2022-09-15T10:02:21.945Z,21.45
2022-09-15T10:07:27.115Z,20.82
2022-09-15T10:12:39.879Z,20.37
2022-09-15T10:17:47.235Z,20.29
2022-09-15T10:22:51.159Z,20.44
2022-09-15T10:28:11.476Z,20.27
2022-09-15T10:33:23.582Z,19.88
2022-09-15T10:38:34.329Z,19.62
2022-09-15T10:44:02.461Z,19.40
2022-09-15T10:49:22.570Z,19.17
2022-09-15T10:55:16.566Z,19.02
2022-09-15T11:00:23.561Z,19.03
2022-09-15T11:05:41.210Z,19.55
2022-09-15T11:11:00.214Z,20.05
2022-09-15T11:16:12.050Z,20.23
2022-09-15T11:21:53.911Z,20.37
2022-09-15T11:27:22.539Z,20.55
2022-09-15T11:32:34.532Z,20.83
2022-09-15T11:37:46.464Z,20.94
2022-09-15T11:42:57.981Z,20.67
2022-09-15T11:48:12.823Z,20.39
2022-09-15T11:53:20.033Z,20.37
2022-09-15T11:58:50.680Z,20.48
2022-09-15T12:04:02.896Z,20.67
2022-09-15T12:09:08.101Z,20.78
2022-09-15T12:14:21.907Z,20.83
2022-09-15T12:19:34.229Z,20.79
2022-09-15T12:24:46.131Z,20.83
2022-09-15T12:29:55.056Z,20.89
2022-09-15T12:35:18.217Z,21.00
2022-09-15T12:40:42.640Z,21.03
2022-09-15T12:45:58.829Z,21.12
2022-09-15T12:51:05.495Z,21.23
2022-09-15T12:56:21.473Z,21.14
2022-09-15T13:01:25.223Z,21.00
2022-09-15T13:06:34.531Z,20.97
2022-09-15T13:11:42.790Z,20.93
2022-09-15T13:16:55.159Z,20.77
2022-09-15T13:22:16.821Z,20.67
2022-09-15T13:27:29.365Z,20.68
2022-09-15T13:32:52.870Z,20.69
2022-09-15T13:38:24.960Z,20.45
2022-09-15T13:43:56.518Z,20.21
2022-09-15T13:49:13.536Z,20.17
2022-09-15T13:54:20.104Z,20.03
2022-09-15T13:59:30.540Z,19.80
2022-09-15T14:04:34.122Z,19.66
2022-09-15T14:09:48.145Z,19.46
2022-09-15T14:14:55.583Z,19.25
2022-09-15T14:20:00.959Z,18.98
2022-09-15T14:25:16.976Z,18.66
2022-09-15T14:30:25.286Z,18.42
2022-09-15T14:35:38.536Z,18.10
2022-09-15T14:40:42.902Z,17.73
2022-09-15T14:46:02.695Z,17.40
2022-09-15T14:51:24.091Z,17.13
2022-09-15T14:56:33.556Z,16.99
2022-09-15T15:01:45.962Z,16.97
2022-09-15T15:07:13.749Z,16.97
2022-09-15T15:12:29.254Z,16.86
2022-09-15T15:17:39.011Z,16.63
2022-09-15T15:22:47.749Z,16.38
2022-09-15T15:27:53.418Z,16.16
2022-09-15T15:33:03.904Z,16.01
2022-09-15T15:38:18.672Z,15.98
2022-09-15T15:43:26.502Z,15.95
2022-09-15T15:48:37.376Z,15.87
2022-09-15T15:53:43.861Z,15.72
2022-09-15T15:58:48.502Z,15.55
2022-09-15T16:03:53.247Z,15.41
2022-09-15T16:08:58.607Z,15.30
2022-09-15T16:14:02.365Z,15.20
2022-09-15T16:19:06.248Z,15.08
2022-09-15T16:24:16.348Z,14.96
2022-09-15T16:29:20.550Z,14.85
2022-09-15T16:34:23.973Z,14.75
2022-09-15T16:39:27.787Z,14.68
2022-09-15T16:44:39.635Z,14.64
2022-09-15T16:49:44.365Z,14.60
2022-09-15T16:54:47.547Z,14.54
2022-09-15T16:59:51.834Z,14.41
2022-09-15T17:04:56.833Z,14.23
2022-09-15T17:10:00.347Z,14.05
2022-09-15T17:15:23.011Z,13.87
2022-09-15T17:20:28.565Z,13.74
2022-09-15T17:25:40.901Z,13.66
2022-09-15T17:30:52.109Z,13.60
2022-09-15T17:36:00.521Z,13.54
2022-09-15T17:41:04.450Z,13.44
2022-09-15T17:46:11.400Z,13.34
2022-09-15T17:51:20.178Z,13.23
2022-09-15T17:56:24.233Z,13.09
2022-09-15T18:01:28.989Z,12.91
2022-09-15T18:06:39.473Z,12.71
2022-09-15T18:11:51.943Z,12.53
2022-09-15T18:16:57.746Z,12.37
2022-09-15T18:22:01.976Z,12.23
2022-09-15T18:27:07.022Z,12.09
2022-09-15T18:32:10.624Z,11.94
2022-09-15T18:37:14.864Z,11.81
2022-09-15T18:42:18.578Z,11.69
2022-09-15T18:47:22.577Z,11.56
2022-09-15T18:52:26.820Z,11.43
2022-09-15T18:57:42.375Z,11.28
2022-09-15T19:02:47.913Z,11.11
2022-09-15T19:07:56.245Z,10.96
2022-09-15T19:13:01.079Z,10.82
2022-09-15T19:18:08.820Z,10.68
2022-09-15T19:23:18.615Z,10.57
2022-09-15T19:28:23.260Z,10.50
2022-09-15T19:33:29.256Z,10.43
2022-09-15T19:38:38.887Z,10.36
2022-09-15T19:43:43.507Z,10.29
2022-09-15T19:48:50.136Z,10.26
2022-09-15T19:53:57.203Z,10.20
2022-09-15T19:59:07.679Z,10.13
2022-09-15T20:04:12.795Z,10.05
2022-09-15T20:09:18.139Z,10.00
2022-09-15T20:14:21.929Z,9.93
2022-09-15T20:19:27.530Z,9.88
2022-09-15T20:24:32.168Z,9.85
2022-09-15T20:29:36.005Z,9.83
2022-09-15T20:34:40.162Z,9.80
2022-09-15T20:39:46.515Z,9.76
2022-09-15T20:44:50.121Z,9.71
2022-09-15T20:49:53.441Z,9.66
2022-09-15T20:54:56.538Z,9.60
2022-09-15T21:00:00.019Z,9.55
2022-09-15T21:05:04.292Z,9.52
2022-09-15T21:10:11.780Z,9.49
2022-09-15T21:15:16.212Z,9.46
2022-09-15T21:20:19.980Z,9.43
2022-09-15T21:25:24.288Z,9.43
2022-09-15T21:30:27.729Z,9.39
2022-09-15T21:35:32.651Z,9.38
2022-09-15T21:40:37.085Z,9.38
2022-09-15T21:45:40.774Z,9.34
2022-09-15T21:50:53.844Z,9.31
2022-09-15T21:56:10.465Z,9.30
2022-09-15T22:01:29.562Z,9.26
2022-09-15T22:06:40.663Z,9.26
2022-09-15T22:11:44.255Z,9.26
2022-09-15T22:16:47.666Z,9.24
2022-09-15T22:21:50.980Z,9.23
2022-09-15T22:26:54.187Z,9.26
2022-09-15T22:31:57.477Z,9.32
2022-09-15T22:37:00.603Z,9.40
2022-09-15T22:42:04.428Z,9.45
2022-09-15T22:47:08.044Z,9.51
2022-09-15T22:52:11.151Z,9.60
2022-09-15T22:57:14.256Z,9.72
2022-09-15T23:02:17.421Z,9.85
2022-09-15T23:07:20.569Z,9.97
2022-09-15T23:12:23.572Z,10.08
2022-09-15T23:17:27.599Z,10.17
2022-09-15T23:22:30.807Z,10.21
2022-09-15T23:27:33.915Z,10.18
2022-09-15T23:32:37.327Z,10.10
2022-09-15T23:37:40.741Z,9.96
2022-09-15T23:42:43.949Z,9.82
2022-09-15T23:47:47.156Z,9.71
2022-09-15T23:52:50.363Z,9.63
2022-09-15T23:57:53.675Z,9.56
